createdAt,value
2022-11-30T00:00:40.479Z,102087.59
2022-11-30T00:03:10.137Z,102083.78
2022-11-30T00:05:39.936Z,102082.06
2022-11-30T00:08:13.315Z,102086.44
2022-11-30T00:10:43.640Z,102087.28
2022-11-30T00:13:13.237Z,102085.47
2022-11-30T00:15:44.991Z,102088.97
2022-11-30T00:18:14.579Z,102086.59
2022-11-30T00:20:44.462Z,102086.56
2022-11-30T00:23:15.057Z,102091.94
2022-11-30T00:25:44.077Z,102096.50
2022-11-30T00:28:13.361Z,102092.09
2022-11-30T00:30:42.575Z,102092.97
2022-11-30T00:33:11.232Z,102091.78
2022-11-30T00:35:40.063Z,102088.47
2022-11-30T00:38:14.577Z,102083.16
2022-11-30T00:40:46.815Z,102088.47
2022-11-30T00:43:15.884Z,102083.16
2022-11-30T00:45:45.196Z,102080.75
2022-11-30T00:48:15.055Z,102076.13
2022-11-30T00:50:44.042Z,102073.53
2022-11-30T00:53:15.791Z,102076.97
2022-11-30T00:55:46.367Z,102079.00
2022-11-30T00:58:17.145Z,102085.03
2022-11-30T01:00:50.220Z,102087.50
2022-11-30T01:03:19.392Z,102090.34
2022-11-30T01:05:54.689Z,102089.50
2022-11-30T01:08:26.823Z,102093.16
2022-11-30T01:10:57.952Z,102098.31
2022-11-30T01:13:27.081Z,102093.16
2022-11-30T01:15:57.054Z,102095.88
2022-11-30T01:18:25.945Z,102096.66
2022-11-30T01:20:54.918Z,102095.72
2022-11-30T01:23:25.973Z,102105.44
2022-11-30T01:26:09.909Z,102100.78
2022-11-30T01:28:41.345Z,102102.84
2022-11-30T01:31:15.368Z,102101.13
2022-11-30T01:33:52.688Z,102106.28
2022-11-30T01:36:26.357Z,102102.78
2022-11-30T01:38:59.493Z,102107.13
2022-11-30T01:41:32.454Z,102107.16
2022-11-30T01:44:54.596Z,102111.59
2022-11-30T01:47:32.445Z,102116.75
2022-11-30T01:50:08.235Z,102113.28
2022-11-30T01:52:41.305Z,102121.28
2022-11-30T01:55:22.465Z,102123.09
2022-11-30T01:57:57.500Z,102114.38
2022-11-30T02:00:26.865Z,102117.91
2022-11-30T02:03:08.443Z,102110.66
2022-11-30T02:05:41.611Z,102118.66
2022-11-30T02:08:15.227Z,102116.19
2022-11-30T02:10:57.170Z,102105.53
2022-11-30T02:14:00.640Z,102115.97
2022-11-30T02:16:41.193Z,102108.97
2022-11-30T02:19:58.968Z,102118.75
2022-11-30T02:22:51.553Z,102116.03
2022-11-30T02:25:32.596Z,102118.06
2022-11-30T02:29:02.695Z,102118.75
2022-11-30T02:38:39.284Z,102118.06
2022-11-30T02:41:42.689Z,102116.31
2022-11-30T02:44:39.227Z,102126.00
2022-11-30T02:47:58.888Z,102124.25
2022-11-30T02:51:13.454Z,102117.00
2022-11-30T02:57:24.079Z,102116.19
2022-11-30T03:04:08.901Z,102120.69
2022-11-30T03:07:22.650Z,102121.50
2022-11-30T03:09:59.478Z,102125.91
2022-11-30T03:18:30.019Z,102132.81
2022-11-30T03:21:08.055Z,102133.69
2022-11-30T03:31:08.216Z,102131.03
2022-11-30T03:33:48.715Z,102135.50
2022-11-30T03:36:50.876Z,102140.78
2022-11-30T03:40:16.256Z,102139.97
2022-11-30T03:43:07.887Z,102149.72
2022-11-30T03:45:54.904Z,102148.13
2022-11-30T03:48:44.377Z,102154.38
2022-11-30T03:54:01.824Z,102158.16
2022-11-30T03:57:02.530Z,102154.91
2022-11-30T03:59:38.328Z,102149.53
2022-11-30T04:02:20.916Z,102160.19
2022-11-30T04:05:02.966Z,102161.28
2022-11-30T04:07:46.339Z,102164.94
2022-11-30T04:10:15.361Z,102170.06
2022-11-30T04:13:29.430Z,102160.31
2022-11-30T04:16:01.291Z,102159.47
2022-11-30T04:18:54.177Z,102164.00
2022-11-30T04:21:32.953Z,102162.47
2022-11-30T04:24:18.059Z,102161.44
2022-11-30T04:27:10.001Z,102164.28
2022-11-30T04:29:45.830Z,102163.31
2022-11-30T04:32:15.136Z,102164.22
2022-11-30T04:34:50.944Z,102163.03
2022-11-30T04:37:29.138Z,102161.47
2022-11-30T04:40:03.982Z,102162.31
2022-11-30T04:42:32.971Z,102161.47
2022-11-30T04:45:06.293Z,102166.03
2022-11-30T04:47:35.388Z,102175.88
2022-11-30T04:50:11.561Z,102175.72
2022-11-30T04:52:47.293Z,102161.69
2022-11-30T04:55:19.863Z,102167.94
2022-11-30T04:57:52.205Z,102170.63
2022-11-30T05:00:41.431Z,102167.84
2022-11-30T05:03:17.054Z,102175.84
2022-11-30T05:05:46.135Z,102175.44
2022-11-30T05:08:22.814Z,102173.06
2022-11-30T05:11:03.633Z,102176.75
2022-11-30T05:13:41.476Z,102172.34
2022-11-30T05:16:16.782Z,102174.13
2022-11-30T05:18:49.208Z,102172.31
2022-11-30T05:21:21.675Z,102187.38
2022-11-30T05:24:00.621Z,102182.06
2022-11-30T05:26:36.777Z,102183.84
2022-11-30T05:29:09.623Z,102179.13
2022-11-30T05:31:44.263Z,102182.84
2022-11-30T05:34:17.496Z,102183.84
2022-11-30T05:37:03.537Z,102192.63
2022-11-30T05:39:43.117Z,102187.25
2022-11-30T05:42:17.696Z,102199.44
2022-11-30T05:45:48.775Z,102190.88
2022-11-30T05:48:23.711Z,102187.41
2022-11-30T05:51:09.543Z,102192.84
2022-11-30T05:53:49.143Z,102192.78
2022-11-30T05:56:26.589Z,102194.47
2022-11-30T05:58:56.818Z,102196.22
2022-11-30T06:01:38.343Z,102199.97
2022-11-30T06:04:09.594Z,102193.56
2022-11-30T06:06:46.579Z,102190.94
2022-11-30T06:09:15.454Z,102194.44
2022-11-30T06:11:51.799Z,102198.00
2022-11-30T06:14:23.561Z,102198.84
2022-11-30T06:16:53.498Z,102200.31
2022-11-30T06:19:23.205Z,102204.91
2022-11-30T06:21:57.153Z,102211.28
2022-11-30T06:24:34.175Z,102212.00
2022-11-30T06:27:05.904Z,102220.97
2022-11-30T06:29:37.582Z,102212.75
2022-11-30T06:32:13.491Z,102229.66
2022-11-30T06:34:48.940Z,102223.34
2022-11-30T06:37:18.520Z,102222.47
2022-11-30T06:40:06.065Z,102232.41
2022-11-30T06:42:45.076Z,102244.84
2022-11-30T06:45:14.459Z,102236.78
2022-11-30T06:47:48.700Z,102231.16
2022-11-30T06:50:20.786Z,102245.41
2022-11-30T06:52:54.077Z,102236.72
2022-11-30T06:55:28.172Z,102231.63
2022-11-30T06:58:06.972Z,102233.31
2022-11-30T07:00:39.306Z,102242.09
2022-11-30T07:03:16.226Z,102235.09
2022-11-30T07:05:49.319Z,102242.25
2022-11-30T07:08:24.278Z,102248.31
2022-11-30T07:11:01.247Z,102243.84
2022-11-30T07:13:36.583Z,102247.41
2022-11-30T07:16:14.962Z,102257.34
2022-11-30T07:18:45.503Z,102257.94
2022-11-30T07:24:21.603Z,102264.41
2022-11-30T07:26:51.667Z,102263.25
2022-11-30T07:29:24.382Z,102270.41
2022-11-30T07:32:01.851Z,102276.66
2022-11-30T07:34:31.602Z,102269.56
2022-11-30T07:37:04.066Z,102273.09
2022-11-30T07:39:36.242Z,102273.06
2022-11-30T07:42:08.379Z,102280.81
2022-11-30T07:44:40.675Z,102273.66
2022-11-30T07:47:15.669Z,102279.00
2022-11-30T07:49:50.987Z,102282.50
2022-11-30T07:52:22.352Z,102275.47
2022-11-30T07:54:54.506Z,102284.44
2022-11-30T07:57:38.241Z,102275.56
2022-11-30T08:00:23.319Z,102282.66
2022-11-30T08:02:56.478Z,102284.38
2022-11-30T08:05:28.686Z,102284.53
2022-11-30T08:07:59.548Z,102296.09
2022-11-30T08:10:32.406Z,102292.19
2022-11-30T08:13:04.470Z,102304.75
2022-11-30T08:15:36.749Z,102300.44
2022-11-30T08:18:10.137Z,102303.94
2022-11-30T08:20:50.108Z,102309.19
2022-11-30T08:23:25.697Z,102316.44
2022-11-30T08:25:57.435Z,102305.81
2022-11-30T08:28:26.431Z,102304.69
2022-11-30T08:31:04.178Z,102304.91
2022-11-30T08:33:38.943Z,102317.34
2022-11-30T08:36:13.748Z,102319.97
2022-11-30T08:38:44.594Z,102319.13
2022-11-30T08:41:18.759Z,102319.22
2022-11-30T08:43:50.902Z,102328.88
2022-11-30T08:55:09.295Z,102341.94
2022-11-30T08:57:43.188Z,102341.06
2022-11-30T09:00:17.479Z,102339.31
2022-11-30T09:02:55.450Z,102341.09
2022-11-30T09:05:27.675Z,102339.41
2022-11-30T09:07:59.918Z,102344.47
2022-11-30T09:10:29.079Z,102347.03
2022-11-30T09:13:04.271Z,102344.56
2022-11-30T09:15:39.936Z,102346.22
2022-11-30T09:18:18.473Z,102352.25
2022-11-30T09:20:49.577Z,102345.38
2022-11-30T09:23:30.082Z,102337.41
2022-11-30T09:26:25.392Z,102346.97
2022-11-30T09:28:57.243Z,102346.06
2022-11-30T09:31:31.552Z,102346.94
2022-11-30T09:34:06.858Z,102340.78
2022-11-30T09:36:45.728Z,102345.16
2022-11-30T09:39:22.963Z,102344.28
2022-11-30T09:42:33.474Z,102352.19
2022-11-30T09:45:17.787Z,102356.78
2022-11-30T09:48:25.090Z,102355.00
2022-11-30T09:51:04.807Z,102353.00
2022-11-30T09:53:44.774Z,102349.59
2022-11-30T09:59:27.253Z,102353.00
2022-11-30T10:02:22.564Z,102350.47
2022-11-30T10:04:51.769Z,102349.47
2022-11-30T10:07:51.618Z,102341.47
2022-11-30T10:10:39.363Z,102347.72
2022-11-30T10:13:30.502Z,102343.25
2022-11-30T10:16:21.736Z,102352.00
2022-11-30T10:19:23.653Z,102343.22
2022-11-30T10:22:09.773Z,102344.88
2022-11-30T10:25:10.311Z,102344.19
2022-11-30T10:28:12.445Z,102339.50
2022-11-30T10:30:51.627Z,102345.72
2022-11-30T10:33:43.055Z,102342.22
2022-11-30T10:36:22.679Z,102337.78
2022-11-30T10:38:59.579Z,102337.69
2022-11-30T10:41:41.057Z,102337.69
2022-11-30T10:44:25.737Z,102333.19
2022-11-30T10:47:10.173Z,102340.25
2022-11-30T10:49:48.734Z,102336.72
2022-11-30T10:52:31.807Z,102341.75
2022-11-30T10:55:14.071Z,102340.91
2022-11-30T10:58:11.779Z,102335.03
2022-11-30T11:00:50.358Z,102344.50
2022-11-30T11:03:28.218Z,102341.91
2022-11-30T11:06:26.023Z,102342.06
2022-11-30T11:08:55.126Z,102342.59
2022-11-30T11:11:42.852Z,102343.78
2022-11-30T11:14:33.652Z,102345.50
2022-11-30T11:17:33.094Z,102354.34
2022-11-30T11:20:07.102Z,102353.16
2022-11-30T11:22:47.037Z,102348.97
2022-11-30T11:25:35.707Z,102356.03
2022-11-30T11:28:27.914Z,102358.41
2022-11-30T11:31:38.012Z,102355.91
2022-11-30T11:34:50.723Z,102360.16
2022-11-30T11:37:43.675Z,102358.44
2022-11-30T11:40:34.701Z,102361.69
2022-11-30T11:43:12.973Z,102362.13
2022-11-30T11:45:49.872Z,102365.53
2022-11-30T11:48:40.843Z,102362.94
2022-11-30T11:51:14.401Z,102361.13
2022-11-30T11:53:59.216Z,102359.31
2022-11-30T11:56:38.769Z,102370.19
2022-11-30T11:59:22.410Z,102364.91
2022-11-30T12:02:04.473Z,102372.91
2022-11-30T12:04:49.753Z,102366.41
2022-11-30T12:07:34.803Z,102369.22
2022-11-30T12:13:24.355Z,102369.81
2022-11-30T12:16:08.793Z,102371.84
2022-11-30T12:19:00.328Z,102366.44
2022-11-30T12:22:00.019Z,102368.19
2022-11-30T12:25:05.868Z,102372.41
2022-11-30T12:27:54.136Z,102376.13
2022-11-30T12:30:30.115Z,102371.81
2022-11-30T12:33:20.574Z,102368.25
2022-11-30T12:36:05.041Z,102367.47
2022-11-30T12:38:51.264Z,102368.25
2022-11-30T12:41:43.589Z,102374.38
2022-11-30T12:44:42.376Z,102366.69
2022-11-30T12:47:35.975Z,102379.00
2022-11-30T12:50:44.941Z,102381.81
2022-11-30T12:53:26.286Z,102389.69
2022-11-30T12:56:19.552Z,102394.06
2022-11-30T12:59:02.003Z,102396.66
2022-11-30T13:01:54.481Z,102398.56
2022-11-30T13:04:31.150Z,102395.63
2022-11-30T13:07:09.046Z,102395.94
2022-11-30T13:09:51.889Z,102396.00
2022-11-30T13:12:36.528Z,102395.09
2022-11-30T13:15:15.649Z,102390.72
2022-11-30T13:17:47.446Z,102395.94
2022-11-30T13:20:28.018Z,102395.88
2022-11-30T13:23:07.419Z,102396.16
2022-11-30T13:29:17.109Z,102399.66
2022-11-30T13:31:56.565Z,102396.94
2022-11-30T13:34:31.893Z,102395.09
2022-11-30T13:37:12.056Z,102391.59
2022-11-30T13:39:52.575Z,102393.25
2022-11-30T13:42:51.770Z,102398.41
2022-11-30T13:45:38.309Z,102385.84
2022-11-30T13:48:34.267Z,102400.44
2022-11-30T13:51:07.152Z,102390.69
2022-11-30T13:53:42.051Z,102390.63
2022-11-30T13:56:37.078Z,102388.78
2022-11-30T13:59:46.539Z,102389.69
2022-11-30T14:02:55.565Z,102389.03
2022-11-30T14:05:41.591Z,102396.88
2022-11-30T14:08:34.388Z,102399.28
2022-11-30T14:11:44.043Z,102399.38
2022-11-30T14:14:46.504Z,102402.19
2022-11-30T14:17:32.017Z,102398.56
2022-11-30T14:20:20.982Z,102406.53
2022-11-30T14:22:52.535Z,102406.47
2022-11-30T14:25:23.648Z,102401.16
2022-11-30T14:28:07.055Z,102406.69
2022-11-30T14:30:41.189Z,102408.34
2022-11-30T14:33:21.626Z,102411.94
2022-11-30T14:36:01.897Z,102416.38
2022-11-30T14:39:22.635Z,102409.31
2022-11-30T14:42:04.948Z,102416.47
2022-11-30T14:44:42.377Z,102423.47
2022-11-30T14:47:30.286Z,102425.25
2022-11-30T14:50:06.607Z,102426.88
2022-11-30T14:53:10.755Z,102439.25
2022-11-30T14:55:54.537Z,102430.41
2022-11-30T14:58:37.395Z,102430.47
2022-11-30T15:01:37.583Z,102433.75
2022-11-30T15:04:20.039Z,102442.03
2022-11-30T15:06:48.994Z,102437.59
2022-11-30T15:09:37.571Z,102429.00
2022-11-30T15:12:29.643Z,102437.78
2022-11-30T15:15:20.160Z,102434.22
2022-11-30T15:17:59.734Z,102442.13
2022-11-30T15:20:43.470Z,102438.50
2022-11-30T15:23:20.235Z,102444.91
2022-11-30T15:26:09.777Z,102446.53
2022-11-30T15:28:44.672Z,102449.22
2022-11-30T15:31:21.529Z,102446.50
2022-11-30T15:33:57.616Z,102446.69
2022-11-30T15:36:33.284Z,102454.59
2022-11-30T15:39:11.568Z,102447.47
2022-11-30T15:41:43.784Z,102449.19
2022-11-30T15:44:28.915Z,102450.06
2022-11-30T15:47:05.004Z,102446.56
2022-11-30T15:49:37.196Z,102443.91
2022-11-30T15:52:21.279Z,102443.16
2022-11-30T15:54:56.633Z,102455.53
2022-11-30T15:57:52.675Z,102452.91
2022-11-30T16:00:26.335Z,102453.84
2022-11-30T16:03:12.795Z,102460.91
2022-11-30T16:05:57.641Z,102450.22
2022-11-30T16:08:33.681Z,102452.03
2022-11-30T16:11:11.819Z,102456.50
2022-11-30T16:13:45.582Z,102456.44
2022-11-30T16:16:16.966Z,102460.00
2022-11-30T16:18:46.716Z,102466.16
2022-11-30T16:21:21.757Z,102461.78
2022-11-30T16:23:54.770Z,102473.28
2022-11-30T16:26:49.429Z,102474.16
2022-11-30T16:29:18.454Z,102468.09
2022-11-30T16:31:48.149Z,102460.22
2022-11-30T16:34:16.927Z,102469.91
2022-11-30T16:36:49.436Z,102471.75
2022-11-30T16:39:18.390Z,102471.63
2022-11-30T16:41:47.310Z,102471.59
2022-11-30T16:44:20.948Z,102478.66
2022-11-30T16:46:55.238Z,102476.00
2022-11-30T16:49:24.357Z,102484.88
2022-11-30T16:51:53.973Z,102484.88
2022-11-30T16:54:24.687Z,102488.41
2022-11-30T16:56:53.844Z,102492.81
2022-11-30T16:59:28.771Z,102493.56
2022-11-30T17:02:20.018Z,102501.69
2022-11-30T17:04:56.441Z,102498.00
2022-11-30T17:07:29.554Z,102500.78
2022-11-30T17:10:02.081Z,102494.44
2022-11-30T17:12:33.321Z,102496.28
2022-11-30T17:15:08.688Z,102498.03
2022-11-30T17:17:39.653Z,102508.66
2022-11-30T17:20:13.473Z,102500.81
2022-11-30T17:22:44.343Z,102506.91
2022-11-30T17:25:18.947Z,102506.97
2022-11-30T17:27:49.657Z,102506.91
2022-11-30T17:30:25.893Z,102516.59
2022-11-30T17:32:55.135Z,102511.50
2022-11-30T17:35:28.012Z,102516.63
2022-11-30T17:37:57.746Z,102517.53
2022-11-30T17:40:36.284Z,102525.47
2022-11-30T17:43:08.359Z,102524.56
2022-11-30T17:45:44.785Z,102526.19
2022-11-30T17:48:14.207Z,102521.84
2022-11-30T17:50:47.695Z,102520.97
2022-11-30T17:53:18.234Z,102521.91
2022-11-30T17:55:48.904Z,102530.78
2022-11-30T17:58:19.010Z,102534.41
2022-11-30T18:00:53.140Z,102529.09
2022-11-30T18:03:21.944Z,102530.00
2022-11-30T18:05:50.723Z,102536.19
2022-11-30T18:08:21.819Z,102537.66
2022-11-30T18:10:50.631Z,102536.78
2022-11-30T18:13:19.476Z,102537.72
2022-11-30T18:15:51.654Z,102542.13
2022-11-30T18:18:23.800Z,102539.47
2022-11-30T18:20:55.515Z,102543.06
2022-11-30T18:23:24.197Z,102554.63
2022-11-30T18:26:02.796Z,102544.88
2022-11-30T18:28:34.392Z,102548.44
2022-11-30T18:31:07.169Z,102553.00
2022-11-30T18:33:37.162Z,102550.34
2022-11-30T18:36:10.611Z,102552.06
2022-11-30T18:38:44.180Z,102553.00
2022-11-30T18:41:15.037Z,102549.22
2022-11-30T18:43:43.852Z,102552.81
2022-11-30T18:46:16.593Z,102552.94
2022-11-30T18:48:50.708Z,102560.03
2022-11-30T18:51:26.271Z,102559.16
2022-11-30T18:53:59.990Z,102563.56
2022-11-30T18:56:36.736Z,102559.91
2022-11-30T18:59:10.016Z,102567.13
2022-11-30T19:01:53.420Z,102570.66
2022-11-30T19:04:25.667Z,102573.34
2022-11-30T19:06:59.308Z,102569.75
2022-11-30T19:09:28.936Z,102578.63
2022-11-30T19:12:01.444Z,102578.72
2022-11-30T19:14:30.519Z,102580.41
2022-11-30T19:17:06.812Z,102576.00
2022-11-30T19:19:35.943Z,102571.50
2022-11-30T19:22:06.007Z,102589.28
2022-11-30T19:24:36.198Z,102587.56
2022-11-30T19:27:05.804Z,102585.69
2022-11-30T19:29:36.059Z,102593.75
2022-11-30T19:32:14.064Z,102591.00
2022-11-30T19:34:44.247Z,102595.44
2022-11-30T19:37:15.840Z,102597.19
2022-11-30T19:39:45.045Z,102590.25
2022-11-30T19:42:16.053Z,102598.22
2022-11-30T19:44:49.049Z,102595.56
2022-11-30T19:47:24.125Z,102594.66
2022-11-30T19:49:57.020Z,102601.56
2022-11-30T19:52:28.303Z,102605.16
2022-11-30T19:55:03.715Z,102605.25
2022-11-30T19:57:32.819Z,102602.50
2022-11-30T20:00:09.485Z,102608.69
2022-11-30T20:02:41.103Z,102602.53
2022-11-30T20:05:13.819Z,102604.38
2022-11-30T20:07:46.028Z,102601.69
2022-11-30T20:10:16.043Z,102604.25
2022-11-30T20:12:45.471Z,102601.75
2022-11-30T20:15:17.526Z,102604.25
2022-11-30T20:17:49.810Z,102607.81
2022-11-30T20:20:21.640Z,102611.34
2022-11-30T20:22:55.728Z,102619.38
2022-11-30T20:25:25.253Z,102606.16
2022-11-30T20:27:54.514Z,102616.63
2022-11-30T20:30:26.092Z,102622.97
2022-11-30T20:33:04.110Z,102616.00
2022-11-30T20:35:37.636Z,102620.22
2022-11-30T20:38:09.147Z,102621.16
2022-11-30T20:40:42.331Z,102621.19
2022-11-30T20:43:11.296Z,102621.19
2022-11-30T20:45:40.377Z,102619.44
2022-11-30T20:48:13.240Z,102627.38
2022-11-30T20:51:01.145Z,102629.13
2022-11-30T20:53:32.557Z,102627.34
2022-11-30T20:56:04.292Z,102620.38
2022-11-30T20:58:36.090Z,102627.56
2022-11-30T21:01:12.856Z,102622.16
2022-11-30T21:03:50.842Z,102623.03
2022-11-30T21:06:24.052Z,102622.03
2022-11-30T21:09:04.018Z,102622.81
2022-11-30T21:11:36.163Z,102630.03
2022-11-30T21:14:07.430Z,102623.94
2022-11-30T21:16:39.431Z,102626.66
2022-11-30T21:19:11.018Z,102618.56
2022-11-30T21:21:40.342Z,102624.06
2022-11-30T21:24:15.179Z,102624.81
2022-11-30T21:26:46.690Z,102620.53
2022-11-30T21:29:19.483Z,102633.69
2022-11-30T21:31:54.784Z,102631.06
2022-11-30T21:34:29.631Z,102629.38
2022-11-30T21:36:59.299Z,102622.31
2022-11-30T21:39:32.081Z,102624.97
2022-11-30T21:42:01.142Z,102631.16
2022-11-30T21:44:34.275Z,102628.50
2022-11-30T21:47:03.451Z,102633.81
2022-11-30T21:49:43.210Z,102636.50
2022-11-30T21:52:14.617Z,102624.06
2022-11-30T21:54:44.113Z,102627.63
2022-11-30T21:57:13.128Z,102628.59
2022-11-30T21:59:44.822Z,102633.00
2022-11-30T22:02:14.408Z,102636.47
2022-11-30T22:04:52.118Z,102630.28
2022-11-30T22:07:31.927Z,102623.28
2022-11-30T22:10:03.248Z,102624.09
2022-11-30T22:12:32.534Z,102623.22
2022-11-30T22:15:08.056Z,102630.38
2022-11-30T22:17:43.325Z,102619.69
2022-11-30T22:20:23.848Z,102620.69
2022-11-30T22:22:55.437Z,102616.22
2022-11-30T22:25:24.784Z,102620.56
2022-11-30T22:27:54.130Z,102613.34
2022-11-30T22:30:23.820Z,102619.69
2022-11-30T22:32:56.003Z,102614.44
2022-11-30T22:35:29.286Z,102617.13
2022-11-30T22:37:58.334Z,102616.28
2022-11-30T22:40:35.214Z,102615.25
2022-11-30T22:43:04.351Z,102618.81
2022-11-30T22:45:39.037Z,102621.41
2022-11-30T22:48:12.660Z,102625.03
2022-11-30T22:50:43.356Z,102624.94
2022-11-30T22:53:12.328Z,102617.88
2022-11-30T22:55:47.959Z,102617.94
2022-11-30T22:58:18.296Z,102627.56
2022-11-30T23:00:49.815Z,102618.66
2022-11-30T23:03:26.582Z,102622.28
2022-11-30T23:06:01.267Z,102621.53
2022-11-30T23:08:37.027Z,102614.44
2022-11-30T23:11:16.879Z,102612.69
2022-11-30T23:13:47.068Z,102611.59
2022-11-30T23:16:22.281Z,102611.66
2022-11-30T23:18:59.855Z,102611.69
2022-11-30T23:21:40.538Z,102607.31
2022-11-30T23:24:17.410Z,102620.66
2022-11-30T23:26:48.511Z,102610.13
2022-11-30T23:29:19.768Z,102610.03
2022-11-30T23:31:54.117Z,102610.84
2022-11-30T23:34:26.679Z,102613.47
2022-11-30T23:37:07.872Z,102618.75
2022-11-30T23:39:37.293Z,102609.06
2022-11-30T23:42:11.996Z,102611.81
2022-11-30T23:44:41.503Z,102617.09
2022-11-30T23:47:18.002Z,102623.22
2022-11-30T23:49:51.659Z,102619.75
2022-11-30T23:52:25.070Z,102624.09
2022-11-30T23:54:57.451Z,102627.72
2022-11-30T23:57:27.294Z,102624.31
